sensor_id;sensor_type;location;lat;lon;timestamp;pressure;altitude;pressure_sealevel;temperature;humidity
26112;BME280;13829;48.990;8.346;2022-07-23T00:02:26;100326.81;;;23.94;80.21
26112;BME280;13829;48.990;8.346;2022-07-23T00:04:53;100331.81;;;24.02;79.98
26112;BME280;13829;48.990;8.346;2022-07-23T00:07:20;100322.97;;;24.00;79.59
26112;BME280;13829;48.990;8.346;2022-07-23T00:09:47;100319.94;;;23.88;79.81
26112;BME280;13829;48.990;8.346;2022-07-23T00:12:14;100329.09;;;23.84;80.39
26112;BME280;13829;48.990;8.346;2022-07-23T00:14:41;100331.16;;;23.79;80.46
26112;BME280;13829;48.990;8.346;2022-07-23T00:17:08;100335.66;;;23.78;80.55
26112;BME280;13829;48.990;8.346;2022-07-23T00:19:36;100331.31;;;23.76;80.52
26112;BME280;13829;48.990;8.346;2022-07-23T00:22:03;100338.59;;;23.74;80.70
26112;BME280;13829;48.990;8.346;2022-07-23T00:24:30;100337.06;;;23.68;80.90
26112;BME280;13829;48.990;8.346;2022-07-23T00:26:57;100339.66;;;23.70;80.69
26112;BME280;13829;48.990;8.346;2022-07-23T00:29:24;100347.91;;;23.67;80.16
26112;BME280;13829;48.990;8.346;2022-07-23T00:31:51;100360.22;;;23.71;79.25
26112;BME280;13829;48.990;8.346;2022-07-23T00:34:18;100352.53;;;23.63;79.69
26112;BME280;13829;48.990;8.346;2022-07-23T00:36:46;100351.53;;;23.66;78.74
26112;BME280;13829;48.990;8.346;2022-07-23T00:39:13;100350.81;;;23.62;78.75
26112;BME280;13829;48.990;8.346;2022-07-23T00:41:40;100344.50;;;23.63;78.14
26112;BME280;13829;48.990;8.346;2022-07-23T00:44:22;100329.41;;;23.60;77.34
26112;BME280;13829;48.990;8.346;2022-07-23T00:46:52;100330.25;;;23.61;76.23
26112;BME280;13829;48.990;8.346;2022-07-23T00:49:20;100322.94;;;23.65;75.71
26112;BME280;13829;48.990;8.346;2022-07-23T00:51:50;100324.69;;;23.66;74.28
26112;BME280;13829;48.990;8.346;2022-07-23T00:54:19;100326.41;;;23.67;73.68
26112;BME280;13829;48.990;8.346;2022-07-23T00:56:48;100330.22;;;23.63;73.17
26112;BME280;13829;48.990;8.346;2022-07-23T00:59:15;100335.72;;;23.59;73.04
26112;BME280;13829;48.990;8.346;2022-07-23T01:01:42;100323.41;;;23.55;72.58
26112;BME280;13829;48.990;8.346;2022-07-23T01:04:11;100318.84;;;23.57;72.85
26112;BME280;13829;48.990;8.346;2022-07-23T01:06:38;100317.63;;;23.45;73.45
26112;BME280;13829;48.990;8.346;2022-07-23T01:09:07;100309.09;;;23.37;73.37
26112;BME280;13829;48.990;8.346;2022-07-23T01:11:36;100297.78;;;23.31;73.44
26112;BME280;13829;48.990;8.346;2022-07-23T01:14:11;100296.94;;;23.30;73.41
26112;BME280;13829;48.990;8.346;2022-07-23T01:16:39;100294.38;;;23.27;73.45
26112;BME280;13829;48.990;8.346;2022-07-23T01:19:06;100312.31;;;23.26;74.70
26112;BME280;13829;48.990;8.346;2022-07-23T01:21:36;100330.44;;;23.21;74.83
26112;BME280;13829;48.990;8.346;2022-07-23T01:24:06;100339.69;;;23.14;75.85
26112;BME280;13829;48.990;8.346;2022-07-23T01:26:34;100333.78;;;23.07;76.23
26112;BME280;13829;48.990;8.346;2022-07-23T01:29:02;100337.69;;;23.00;76.92
26112;BME280;13829;48.990;8.346;2022-07-23T01:31:29;100341.53;;;22.94;77.50
26112;BME280;13829;48.990;8.346;2022-07-23T01:33:56;100329.38;;;22.87;78.32
26112;BME280;13829;48.990;8.346;2022-07-23T01:36:24;100328.44;;;22.88;79.06
26112;BME280;13829;48.990;8.346;2022-07-23T01:38:51;100323.50;;;22.79;78.92
26112;BME280;13829;48.990;8.346;2022-07-23T01:41:19;100330.91;;;22.74;78.96
26112;BME280;13829;48.990;8.346;2022-07-23T01:43:46;100338.13;;;22.72;79.77
26112;BME280;13829;48.990;8.346;2022-07-23T01:46:14;100342.19;;;22.61;80.33
26112;BME280;13829;48.990;8.346;2022-07-23T01:48:41;100350.22;;;22.61;80.21
26112;BME280;13829;48.990;8.346;2022-07-23T01:51:08;100343.59;;;22.50;80.43
26112;BME280;13829;48.990;8.346;2022-07-23T01:53:35;100337.22;;;22.52;79.81
26112;BME280;13829;48.990;8.346;2022-07-23T01:56:03;100325.00;;;22.46;79.46
26112;BME280;13829;48.990;8.346;2022-07-23T01:58:32;100320.97;;;22.36;79.96
26112;BME280;13829;48.990;8.346;2022-07-23T02:00:59;100320.31;;;22.31;79.10
26112;BME280;13829;48.990;8.346;2022-07-23T02:03:27;100314.41;;;22.23;78.98
26112;BME280;13829;48.990;8.346;2022-07-23T02:05:54;100315.59;;;22.17;79.33
26112;BME280;13829;48.990;8.346;2022-07-23T02:08:21;100321.13;;;22.12;79.69
26112;BME280;13829;48.990;8.346;2022-07-23T02:10:48;100316.66;;;22.13;80.26
26112;BME280;13829;48.990;8.346;2022-07-23T02:13:17;100327.50;;;21.89;80.47
26112;BME280;13829;48.990;8.346;2022-07-23T02:15:46;100337.00;;;21.76;81.15
26112;BME280;13829;48.990;8.346;2022-07-23T02:18:13;100343.53;;;21.69;81.30
26112;BME280;13829;48.990;8.346;2022-07-23T02:20:41;100347.69;;;21.55;82.37
26112;BME280;13829;48.990;8.346;2022-07-23T02:23:10;100343.47;;;21.48;84.19
26112;BME280;13829;48.990;8.346;2022-07-23T02:25:37;100352.75;;;21.39;86.68
26112;BME280;13829;48.990;8.346;2022-07-23T02:28:04;100353.00;;;21.33;88.34
26112;BME280;13829;48.990;8.346;2022-07-23T02:30:32;100353.19;;;21.28;89.58
26112;BME280;13829;48.990;8.346;2022-07-23T02:33:00;100345.44;;;21.22;91.07
26112;BME280;13829;48.990;8.346;2022-07-23T02:35:27;100350.09;;;21.17;91.61
26112;BME280;13829;48.990;8.346;2022-07-23T02:37:54;100346.72;;;21.12;92.01
26112;BME280;13829;48.990;8.346;2022-07-23T02:40:21;100353.06;;;21.09;92.55
26112;BME280;13829;48.990;8.346;2022-07-23T02:42:48;100346.84;;;21.09;92.34
26112;BME280;13829;48.990;8.346;2022-07-23T02:45:15;100352.38;;;21.04;92.81
26112;BME280;13829;48.990;8.346;2022-07-23T02:47:42;100362.19;;;21.04;93.50
26112;BME280;13829;48.990;8.346;2022-07-23T02:50:10;100368.47;;;21.02;93.13
26112;BME280;13829;48.990;8.346;2022-07-23T02:52:37;100379.06;;;21.06;93.67
26112;BME280;13829;48.990;8.346;2022-07-23T02:55:06;100375.31;;;21.10;94.67
26112;BME280;13829;48.990;8.346;2022-07-23T02:57:33;100391.13;;;21.16;95.42
26112;BME280;13829;48.990;8.346;2022-07-23T03:00:00;100386.47;;;21.21;95.26
26112;BME280;13829;48.990;8.346;2022-07-23T03:02:27;100385.34;;;21.27;93.96
26112;BME280;13829;48.990;8.346;2022-07-23T03:04:54;100391.44;;;21.30;94.91
26112;BME280;13829;48.990;8.346;2022-07-23T03:07:22;100395.00;;;21.31;94.08
26112;BME280;13829;48.990;8.346;2022-07-23T03:09:49;100400.28;;;21.32;93.54
26112;BME280;13829;48.990;8.346;2022-07-23T03:12:16;100403.97;;;21.30;91.85
26112;BME280;13829;48.990;8.346;2022-07-23T03:14:43;100401.22;;;21.31;92.86
26112;BME280;13829;48.990;8.346;2022-07-23T03:17:10;100385.16;;;21.31;92.55
26112;BME280;13829;48.990;8.346;2022-07-23T03:19:37;100392.19;;;21.34;90.29
26112;BME280;13829;48.990;8.346;2022-07-23T03:22:05;100409.16;;;21.33;89.64
26112;BME280;13829;48.990;8.346;2022-07-23T03:24:33;100406.50;;;21.33;90.06
26112;BME280;13829;48.990;8.346;2022-07-23T03:27:18;100408.19;;;21.35;89.42
26112;BME280;13829;48.990;8.346;2022-07-23T03:29:45;100410.91;;;21.34;89.55
26112;BME280;13829;48.990;8.346;2022-07-23T03:32:12;100403.66;;;21.38;89.67
26112;BME280;13829;48.990;8.346;2022-07-23T03:34:39;100402.81;;;21.35;87.91
26112;BME280;13829;48.990;8.346;2022-07-23T03:37:06;100395.88;;;21.31;88.25
26112;BME280;13829;48.990;8.346;2022-07-23T03:39:34;100393.25;;;21.30;89.49
26112;BME280;13829;48.990;8.346;2022-07-23T03:42:02;100383.41;;;21.30;88.88
26112;BME280;13829;48.990;8.346;2022-07-23T03:44:29;100386.75;;;21.37;89.59
26112;BME280;13829;48.990;8.346;2022-07-23T03:46:56;100383.94;;;21.40;86.10
26112;BME280;13829;48.990;8.346;2022-07-23T03:49:23;100383.81;;;21.43;83.95
26112;BME280;13829;48.990;8.346;2022-07-23T03:51:50;100383.06;;;21.40;84.51
26112;BME280;13829;48.990;8.346;2022-07-23T03:54:17;100392.13;;;21.35;84.83
26112;BME280;13829;48.990;8.346;2022-07-23T03:56:46;100398.47;;;21.33;85.51
26112;BME280;13829;48.990;8.346;2022-07-23T03:59:13;100411.13;;;21.29;86.77
26112;BME280;13829;48.990;8.346;2022-07-23T04:01:40;100416.56;;;21.26;87.87
26112;BME280;13829;48.990;8.346;2022-07-23T04:04:07;100423.38;;;21.35;86.30
26112;BME280;13829;48.990;8.346;2022-07-23T04:06:35;100435.19;;;21.29;87.29
26112;BME280;13829;48.990;8.346;2022-07-23T04:09:02;100436.91;;;21.30;88.64
26112;BME280;13829;48.990;8.346;2022-07-23T04:11:30;100433.06;;;21.38;86.58
26112;BME280;13829;48.990;8.346;2022-07-23T04:13:58;100440.72;;;21.47;86.05
26112;BME280;13829;48.990;8.346;2022-07-23T04:16:25;100432.25;;;21.59;84.10
26112;BME280;13829;48.990;8.346;2022-07-23T04:18:52;100423.44;;;21.57;82.10
26112;BME280;13829;48.990;8.346;2022-07-23T04:21:19;100421.53;;;21.59;83.13
26112;BME280;13829;48.990;8.346;2022-07-23T04:23:46;100408.16;;;21.59;84.21
26112;BME280;13829;48.990;8.346;2022-07-23T04:26:13;100411.53;;;21.64;83.76
26112;BME280;13829;48.990;8.346;2022-07-23T04:28:40;100430.69;;;21.76;81.37
26112;BME280;13829;48.990;8.346;2022-07-23T04:31:08;100429.25;;;21.89;81.24
26112;BME280;13829;48.990;8.346;2022-07-23T04:33:35;100429.31;;;21.88;82.54
26112;BME280;13829;48.990;8.346;2022-07-23T04:36:03;100434.88;;;21.83;82.13
26112;BME280;13829;48.990;8.346;2022-07-23T04:38:30;100445.63;;;21.81;83.55
26112;BME280;13829;48.990;8.346;2022-07-23T04:40:58;100453.34;;;21.89;82.99
26112;BME280;13829;48.990;8.346;2022-07-23T04:43:25;100455.22;;;21.87;82.97
26112;BME280;13829;48.990;8.346;2022-07-23T04:45:52;100455.78;;;21.95;83.76
26112;BME280;13829;48.990;8.346;2022-07-23T04:48:20;100463.50;;;22.03;83.88
26112;BME280;13829;48.990;8.346;2022-07-23T04:50:47;100460.75;;;22.05;82.99
26112;BME280;13829;48.990;8.346;2022-07-23T04:53:15;100462.47;;;22.06;83.87
26112;BME280;13829;48.990;8.346;2022-07-23T04:55:43;100464.84;;;22.13;81.01
26112;BME280;13829;48.990;8.346;2022-07-23T04:58:10;100475.56;;;22.13;81.89
26112;BME280;13829;48.990;8.346;2022-07-23T05:00:37;100473.06;;;22.09;80.95
26112;BME280;13829;48.990;8.346;2022-07-23T05:03:04;100476.94;;;22.02;80.75
26112;BME280;13829;48.990;8.346;2022-07-23T05:05:32;100488.00;;;22.14;77.78
26112;BME280;13829;48.990;8.346;2022-07-23T05:07:59;100484.34;;;22.17;76.96
26112;BME280;13829;48.990;8.346;2022-07-23T05:10:26;100480.97;;;22.12;78.02
26112;BME280;13829;48.990;8.346;2022-07-23T05:12:53;100484.44;;;22.14;79.80
26112;BME280;13829;48.990;8.346;2022-07-23T05:15:20;100481.97;;;22.09;79.37
26112;BME280;13829;48.990;8.346;2022-07-23T05:17:47;100468.38;;;22.14;81.47
26112;BME280;13829;48.990;8.346;2022-07-23T05:20:14;100458.06;;;22.25;81.08
26112;BME280;13829;48.990;8.346;2022-07-23T05:22:43;100463.34;;;22.27;81.59
26112;BME280;13829;48.990;8.346;2022-07-23T05:25:10;100473.41;;;22.44;82.15
26112;BME280;13829;48.990;8.346;2022-07-23T05:27:37;100453.88;;;22.61;77.56
26112;BME280;13829;48.990;8.346;2022-07-23T05:30:05;100450.09;;;22.86;74.71
26112;BME280;13829;48.990;8.346;2022-07-23T05:32:32;100441.28;;;23.03;73.53
26112;BME280;13829;48.990;8.346;2022-07-23T05:34:59;100452.00;;;23.03;73.48
26112;BME280;13829;48.990;8.346;2022-07-23T05:37:26;100447.22;;;22.90;74.23
26112;BME280;13829;48.990;8.346;2022-07-23T05:39:54;100466.69;;;23.15;73.70
26112;BME280;13829;48.990;8.346;2022-07-23T05:42:21;100476.88;;;23.06;74.97
26112;BME280;13829;48.990;8.346;2022-07-23T05:44:48;100481.38;;;23.06;76.29
26112;BME280;13829;48.990;8.346;2022-07-23T05:47:15;100486.59;;;23.09;76.22
26112;BME280;13829;48.990;8.346;2022-07-23T05:49:43;100486.88;;;23.03;75.17
26112;BME280;13829;48.990;8.346;2022-07-23T05:52:10;100499.78;;;22.94;76.17
26112;BME280;13829;48.990;8.346;2022-07-23T05:54:37;100489.47;;;22.85;79.38
26112;BME280;13829;48.990;8.346;2022-07-23T05:57:05;100486.91;;;22.82;81.25
26112;BME280;13829;48.990;8.346;2022-07-23T05:59:32;100488.13;;;22.75;79.50
26112;BME280;13829;48.990;8.346;2022-07-23T06:01:59;100493.91;;;22.66;80.92
26112;BME280;13829;48.990;8.346;2022-07-23T06:04:27;100508.38;;;22.61;83.72
26112;BME280;13829;48.990;8.346;2022-07-23T06:06:53;100506.38;;;22.67;83.53
26112;BME280;13829;48.990;8.346;2022-07-23T06:09:20;100505.94;;;22.76;83.60
26112;BME280;13829;48.990;8.346;2022-07-23T06:11:47;100509.75;;;22.91;83.04
26112;BME280;13829;48.990;8.346;2022-07-23T06:14:16;100523.22;;;23.10;84.32
26112;BME280;13829;48.990;8.346;2022-07-23T06:16:43;100519.09;;;23.42;80.62
26112;BME280;13829;48.990;8.346;2022-07-23T06:19:09;100524.50;;;23.41;82.40
26112;BME280;13829;48.990;8.346;2022-07-23T06:21:36;100532.91;;;23.33;81.81
26112;BME280;13829;48.990;8.346;2022-07-23T06:24:04;100533.94;;;23.10;80.84
26112;BME280;13829;48.990;8.346;2022-07-23T06:26:31;100541.28;;;22.86;81.66
26112;BME280;13829;48.990;8.346;2022-07-23T06:28:58;100548.59;;;22.82;82.72
26112;BME280;13829;48.990;8.346;2022-07-23T06:31:26;100547.66;;;22.83;82.61
26112;BME280;13829;48.990;8.346;2022-07-23T06:33:53;100547.91;;;22.97;81.32
26112;BME280;13829;48.990;8.346;2022-07-23T06:36:20;100539.56;;;23.24;79.67
26112;BME280;13829;48.990;8.346;2022-07-23T06:38:47;100539.28;;;23.31;79.92
26112;BME280;13829;48.990;8.346;2022-07-23T06:41:14;100518.25;;;23.21;79.90
26112;BME280;13829;48.990;8.346;2022-07-23T06:43:41;100523.91;;;23.15;81.03
26112;BME280;13829;48.990;8.346;2022-07-23T06:46:08;100537.25;;;23.17;81.68
26112;BME280;13829;48.990;8.346;2022-07-23T06:48:36;100543.72;;;23.32;81.59
26112;BME280;13829;48.990;8.346;2022-07-23T06:51:04;100543.53;;;23.55;81.08
26112;BME280;13829;48.990;8.346;2022-07-23T06:53:31;100549.63;;;23.78;80.66
26112;BME280;13829;48.990;8.346;2022-07-23T06:55:58;100550.75;;;23.93;79.02
26112;BME280;13829;48.990;8.346;2022-07-23T06:58:25;100548.75;;;23.97;77.07
26112;BME280;13829;48.990;8.346;2022-07-23T07:00:52;100551.50;;;23.95;76.09
26112;BME280;13829;48.990;8.346;2022-07-23T07:03:19;100554.28;;;23.93;76.64
26112;BME280;13829;48.990;8.346;2022-07-23T07:05:47;100552.44;;;23.75;78.16
26112;BME280;13829;48.990;8.346;2022-07-23T07:08:15;100554.63;;;23.67;77.39
26112;BME280;13829;48.990;8.346;2022-07-23T07:10:42;100548.63;;;23.61;78.79
26112;BME280;13829;48.990;8.346;2022-07-23T07:13:09;100547.31;;;23.51;78.17
26112;BME280;13829;48.990;8.346;2022-07-23T07:15:36;100537.78;;;23.44;78.71
26112;BME280;13829;48.990;8.346;2022-07-23T07:18:03;100541.94;;;23.51;80.29
26112;BME280;13829;48.990;8.346;2022-07-23T07:20:30;100541.94;;;23.51;82.33
26112;BME280;13829;48.990;8.346;2022-07-23T07:22:59;100555.84;;;23.59;82.65
26112;BME280;13829;48.990;8.346;2022-07-23T07:25:26;100558.63;;;23.77;81.56
26112;BME280;13829;48.990;8.346;2022-07-23T07:27:53;100560.16;;;24.02;81.22
26112;BME280;13829;48.990;8.346;2022-07-23T07:30:20;100557.84;;;24.48;79.09
26112;BME280;13829;48.990;8.346;2022-07-23T07:32:47;100559.44;;;25.05;76.79
26112;BME280;13829;48.990;8.346;2022-07-23T07:35:14;100558.66;;;27.09;69.09
26112;BME280;13829;48.990;8.346;2022-07-23T07:37:41;100542.69;;;29.38;59.16
26112;BME280;13829;48.990;8.346;2022-07-23T07:40:10;100544.03;;;31.13;50.16
26112;BME280;13829;48.990;8.346;2022-07-23T07:42:45;100547.84;;;32.55;48.39
26112;BME280;13829;48.990;8.346;2022-07-23T07:45:12;100556.44;;;33.14;43.25
26112;BME280;13829;48.990;8.346;2022-07-23T07:47:39;100549.78;;;32.64;42.73
26112;BME280;13829;48.990;8.346;2022-07-23T07:50:07;100562.50;;;32.22;44.55
26112;BME280;13829;48.990;8.346;2022-07-23T07:52:34;100565.13;;;32.65;44.20
26112;BME280;13829;48.990;8.346;2022-07-23T07:55:02;100565.94;;;32.98;42.82
26112;BME280;13829;48.990;8.346;2022-07-23T07:57:31;100565.06;;;32.56;43.02
26112;BME280;13829;48.990;8.346;2022-07-23T07:59:58;100559.13;;;32.83;42.73
26112;BME280;13829;48.990;8.346;2022-07-23T08:02:25;100561.47;;;33.40;40.94
26112;BME280;13829;48.990;8.346;2022-07-23T08:04:52;100567.22;;;32.94;41.60
26112;BME280;13829;48.990;8.346;2022-07-23T08:07:19;100568.25;;;32.61;41.23
26112;BME280;13829;48.990;8.346;2022-07-23T08:09:46;100573.88;;;33.01;42.11
26112;BME280;13829;48.990;8.346;2022-07-23T08:12:13;100581.25;;;33.73;38.89
26112;BME280;13829;48.990;8.346;2022-07-23T08:14:41;100571.16;;;34.04;38.34
26112;BME280;13829;48.990;8.346;2022-07-23T08:17:10;100583.09;;;34.62;37.66
26112;BME280;13829;48.990;8.346;2022-07-23T08:19:37;100583.25;;;34.80;37.19
26112;BME280;13829;48.990;8.346;2022-07-23T08:22:04;100586.88;;;34.61;38.98
26112;BME280;13829;48.990;8.346;2022-07-23T08:24:31;100580.22;;;34.93;36.88
26112;BME280;13829;48.990;8.346;2022-07-23T08:26:58;100591.00;;;35.52;36.26
26112;BME280;13829;48.990;8.346;2022-07-23T08:29:25;100577.41;;;35.22;36.63
26112;BME280;13829;48.990;8.346;2022-07-23T08:31:53;100580.81;;;34.97;37.95
26112;BME280;13829;48.990;8.346;2022-07-23T08:34:20;100576.44;;;35.14;35.38
26112;BME280;13829;48.990;8.346;2022-07-23T08:36:47;100582.22;;;34.81;36.07
26112;BME280;13829;48.990;8.346;2022-07-23T08:39:14;100580.50;;;35.00;36.81
26112;BME280;13829;48.990;8.346;2022-07-23T08:41:41;100592.44;;;34.99;36.40
26112;BME280;13829;48.990;8.346;2022-07-23T08:44:09;100584.25;;;34.69;36.22
26112;BME280;13829;48.990;8.346;2022-07-23T08:46:38;100581.94;;;34.65;38.07
26112;BME280;13829;48.990;8.346;2022-07-23T08:49:07;100589.41;;;34.82;36.05
26112;BME280;13829;48.990;8.346;2022-07-23T08:51:35;100588.44;;;34.44;37.35
26112;BME280;13829;48.990;8.346;2022-07-23T08:54:02;100588.81;;;34.10;38.74
26112;BME280;13829;48.990;8.346;2022-07-23T08:56:29;100582.47;;;34.00;38.63
26112;BME280;13829;48.990;8.346;2022-07-23T08:58:57;100591.56;;;33.69;37.91
26112;BME280;13829;48.990;8.346;2022-07-23T09:01:24;100594.84;;;33.11;40.13
26112;BME280;13829;48.990;8.346;2022-07-23T09:03:51;100592.63;;;32.62;40.66
26112;BME280;13829;48.990;8.346;2022-07-23T09:06:19;100589.91;;;32.62;41.57
26112;BME280;13829;48.990;8.346;2022-07-23T09:08:46;100598.41;;;32.36;41.56
26112;BME280;13829;48.990;8.346;2022-07-23T09:11:17;100596.72;;;32.35;42.84
26112;BME280;13829;48.990;8.346;2022-07-23T09:13:47;100592.44;;;32.10;43.43
26112;BME280;13829;48.990;8.346;2022-07-23T09:16:17;100599.72;;;32.21;43.32
26112;BME280;13829;48.990;8.346;2022-07-23T09:18:47;100592.28;;;32.23;42.95
26112;BME280;13829;48.990;8.346;2022-07-23T09:21:22;100592.25;;;32.34;42.80
26112;BME280;13829;48.990;8.346;2022-07-23T09:23:57;100583.47;;;32.31;41.32
26112;BME280;13829;48.990;8.346;2022-07-23T09:26:32;100589.53;;;32.34;42.17
26112;BME280;13829;48.990;8.346;2022-07-23T09:29:08;100581.13;;;32.59;41.21
26112;BME280;13829;48.990;8.346;2022-07-23T09:31:48;100574.59;;;32.82;41.05
26112;BME280;13829;48.990;8.346;2022-07-23T09:34:20;100574.56;;;32.61;40.78
26112;BME280;13829;48.990;8.346;2022-07-23T09:36:50;100577.56;;;32.58;42.46
26112;BME280;13829;48.990;8.346;2022-07-23T09:39:26;100573.16;;;32.67;40.16
26112;BME280;13829;48.990;8.346;2022-07-23T09:41:54;100579.25;;;32.59;39.42
26112;BME280;13829;48.990;8.346;2022-07-23T09:44:22;100566.31;;;32.51;40.03
26112;BME280;13829;48.990;8.346;2022-07-23T09:46:58;100581.84;;;32.40;39.97
26112;BME280;13829;48.990;8.346;2022-07-23T09:49:25;100578.94;;;32.20;41.58
26112;BME280;13829;48.990;8.346;2022-07-23T09:51:56;100584.56;;;31.84;42.72
26112;BME280;13829;48.990;8.346;2022-07-23T09:54:33;100575.31;;;31.64;42.25
26112;BME280;13829;48.990;8.346;2022-07-23T09:57:04;100572.69;;;31.51;42.77
26112;BME280;13829;48.990;8.346;2022-07-23T09:59:36;100576.66;;;31.36;42.25
26112;BME280;13829;48.990;8.346;2022-07-23T10:02:05;100574.19;;;31.21;42.39
26112;BME280;13829;48.990;8.346;2022-07-23T10:04:33;100575.28;;;31.08;41.93
26112;BME280;13829;48.990;8.346;2022-07-23T10:07:03;100578.94;;;30.95;43.54
26112;BME280;13829;48.990;8.346;2022-07-23T10:09:33;100585.09;;;30.86;44.52
26112;BME280;13829;48.990;8.346;2022-07-23T10:12:03;100572.34;;;30.75;43.06
26112;BME280;13829;48.990;8.346;2022-07-23T10:14:53;100584.38;;;30.60;44.20
26112;BME280;13829;48.990;8.346;2022-07-23T10:17:20;100586.66;;;30.29;44.24
26112;BME280;13829;48.990;8.346;2022-07-23T10:19:47;100585.44;;;30.21;43.82
26112;BME280;13829;48.990;8.346;2022-07-23T10:22:22;100578.91;;;30.24;44.69
26112;BME280;13829;48.990;8.346;2022-07-23T10:24:58;100591.00;;;30.07;44.74
26112;BME280;13829;48.990;8.346;2022-07-23T10:27:54;100587.44;;;30.06;44.83
26112;BME280;13829;48.990;8.346;2022-07-23T10:30:36;100586.38;;;29.96;44.48
26112;BME280;13829;48.990;8.346;2022-07-23T10:33:29;100583.31;;;30.01;47.17
26112;BME280;13829;48.990;8.346;2022-07-23T10:36:07;100586.53;;;30.06;45.80
26112;BME280;13829;48.990;8.346;2022-07-23T10:38:47;100585.50;;;29.83;44.70
26112;BME280;13829;48.990;8.346;2022-07-23T10:41:31;100578.44;;;29.56;44.90
26112;BME280;13829;48.990;8.346;2022-07-23T10:44:10;100581.81;;;29.47;45.93
26112;BME280;13829;48.990;8.346;2022-07-23T10:46:57;100580.91;;;29.59;46.42
26112;BME280;13829;48.990;8.346;2022-07-23T10:49:34;100583.50;;;29.73;44.83
26112;BME280;13829;48.990;8.346;2022-07-23T10:52:32;100577.50;;;29.81;46.12
26112;BME280;13829;48.990;8.346;2022-07-23T10:55:40;100571.44;;;29.77;43.87
26112;BME280;13829;48.990;8.346;2022-07-23T10:58:07;100569.03;;;29.86;45.40
26112;BME280;13829;48.990;8.346;2022-07-23T11:00:36;100570.22;;;29.94;45.48
26112;BME280;13829;48.990;8.346;2022-07-23T11:05:48;100577.50;;;29.94;44.79
26112;BME280;13829;48.990;8.346;2022-07-23T11:08:17;100573.63;;;29.72;44.27
26112;BME280;13829;48.990;8.346;2022-07-23T11:10:56;100579.25;;;29.69;46.33
26112;BME280;13829;48.990;8.346;2022-07-23T11:13:48;100584.59;;;29.71;47.43
26112;BME280;13829;48.990;8.346;2022-07-23T11:16:19;100576.91;;;29.65;44.60
26112;BME280;13829;48.990;8.346;2022-07-23T11:19:11;100574.31;;;29.50;45.60
26112;BME280;13829;48.990;8.346;2022-07-23T11:21:46;100576.84;;;29.40;46.24
26112;BME280;13829;48.990;8.346;2022-07-23T11:24:22;100577.88;;;29.25;46.56
26112;BME280;13829;48.990;8.346;2022-07-23T11:26:58;100573.66;;;29.34;45.79
26112;BME280;13829;48.990;8.346;2022-07-23T11:29:48;100576.16;;;29.50;46.99
26112;BME280;13829;48.990;8.346;2022-07-23T11:32:31;100567.78;;;29.53;45.55
26112;BME280;13829;48.990;8.346;2022-07-23T11:35:01;100574.91;;;29.67;45.77
26112;BME280;13829;48.990;8.346;2022-07-23T11:37:36;100575.03;;;29.65;45.92
26112;BME280;13829;48.990;8.346;2022-07-23T11:40:08;100577.09;;;29.61;46.30
26112;BME280;13829;48.990;8.346;2022-07-23T11:42:39;100562.00;;;29.70;46.56
26112;BME280;13829;48.990;8.346;2022-07-23T11:45:08;100565.78;;;29.81;46.17
26112;BME280;13829;48.990;8.346;2022-07-23T11:47:35;100563.09;;;29.93;46.09
26112;BME280;13829;48.990;8.346;2022-07-23T11:50:05;100558.41;;;29.83;45.83
26112;BME280;13829;48.990;8.346;2022-07-23T11:52:33;100565.31;;;29.87;46.83
26112;BME280;13829;48.990;8.346;2022-07-23T11:55:04;100565.31;;;29.87;46.55
26112;BME280;13829;48.990;8.346;2022-07-23T11:57:34;100557.88;;;29.77;45.93
26112;BME280;13829;48.990;8.346;2022-07-23T12:00:07;100568.25;;;29.59;46.14
26112;BME280;13829;48.990;8.346;2022-07-23T12:02:36;100552.81;;;29.60;47.37
26112;BME280;13829;48.990;8.346;2022-07-23T12:05:05;100547.84;;;29.54;46.31
26112;BME280;13829;48.990;8.346;2022-07-23T12:07:35;100553.84;;;29.46;46.17
26112;BME280;13829;48.990;8.346;2022-07-23T12:10:08;100548.28;;;29.48;44.85
26112;BME280;13829;48.990;8.346;2022-07-23T12:12:40;100535.09;;;29.43;46.38
26112;BME280;13829;48.990;8.346;2022-07-23T12:15:11;100531.88;;;29.38;45.89
26112;BME280;13829;48.990;8.346;2022-07-23T12:17:40;100528.78;;;29.55;47.32
26112;BME280;13829;48.990;8.346;2022-07-23T12:20:12;100535.75;;;29.47;46.22
26112;BME280;13829;48.990;8.346;2022-07-23T12:22:43;100541.88;;;29.61;46.18
26112;BME280;13829;48.990;8.346;2022-07-23T12:25:13;100531.75;;;29.76;46.53
26112;BME280;13829;48.990;8.346;2022-07-23T12:27:41;100532.38;;;29.80;45.56
26112;BME280;13829;48.990;8.346;2022-07-23T12:30:28;100526.94;;;29.93;46.41
26112;BME280;13829;48.990;8.346;2022-07-23T12:32:57;100531.28;;;29.83;44.79
26112;BME280;13829;48.990;8.346;2022-07-23T12:35:35;100535.38;;;30.01;44.80
26112;BME280;13829;48.990;8.346;2022-07-23T12:38:06;100529.66;;;30.17;42.21
26112;BME280;13829;48.990;8.346;2022-07-23T12:40:37;100523.09;;;30.33;43.22
26112;BME280;13829;48.990;8.346;2022-07-23T12:43:11;100528.88;;;30.39;42.83
26112;BME280;13829;48.990;8.346;2022-07-23T12:45:46;100519.13;;;30.37;42.83
26112;BME280;13829;48.990;8.346;2022-07-23T12:48:23;100522.72;;;30.37;42.68
26112;BME280;13829;48.990;8.346;2022-07-23T12:50:56;100521.47;;;30.30;42.65
26112;BME280;13829;48.990;8.346;2022-07-23T12:53:27;100520.88;;;30.38;42.66
26112;BME280;13829;48.990;8.346;2022-07-23T12:56:06;100522.97;;;30.34;43.12
26112;BME280;13829;48.990;8.346;2022-07-23T12:58:46;100517.22;;;30.26;41.77
26112;BME280;13829;48.990;8.346;2022-07-23T13:01:27;100525.19;;;30.40;44.58
26112;BME280;13829;48.990;8.346;2022-07-23T13:04:02;100516.59;;;30.47;42.72
26112;BME280;13829;48.990;8.346;2022-07-23T13:06:32;100521.97;;;30.35;42.21